createdAt,value
2018-05-03T00:01:48.089Z,97245.88
2018-05-03T00:04:15.535Z,97241.47
2018-05-03T00:06:42.963Z,97237.27
2018-05-03T00:09:10.524Z,97242.37
2018-05-03T00:11:37.989Z,97243.33
2018-05-03T00:14:05.423Z,97242.28
2018-05-03T00:16:32.883Z,97254.93
2018-05-03T00:19:00.312Z,97256.09
2018-05-03T00:21:27.774Z,97262.60
2018-05-03T00:23:55.224Z,97262.52
2018-05-03T00:26:22.705Z,97260.77
2018-05-03T00:28:50.173Z,97259.16
2018-05-03T00:31:17.671Z,97263.92
2018-05-03T00:33:45.144Z,97263.14
2018-05-03T00:36:12.581Z,97256.30
2018-05-03T00:38:40.067Z,97252.88
2018-05-03T00:41:07.536Z,97250.00
2018-05-03T00:43:35.067Z,97251.80
2018-05-03T00:46:02.557Z,97255.35
2018-05-03T00:48:30.104Z,97262.20
2018-05-03T00:50:57.549Z,97259.59
2018-05-03T00:53:25.177Z,97254.79
2018-05-03T00:55:52.679Z,97251.02
2018-05-03T00:58:20.092Z,97250.63
2018-05-03T01:00:47.545Z,97242.93
2018-05-03T01:03:14.999Z,97246.72
2018-05-03T01:05:42.465Z,97241.20
2018-05-03T01:08:09.885Z,97243.18
2018-05-03T01:10:37.338Z,97247.96
2018-05-03T01:13:04.772Z,97251.52
2018-05-03T01:15:32.205Z,97246.97
2018-05-03T01:17:59.650Z,97245.06
2018-05-03T01:20:27.109Z,97252.62
2018-05-03T01:22:54.588Z,97253.27
2018-05-03T01:25:22.974Z,97255.17
2018-05-03T01:27:50.572Z,97252.48
2018-05-03T01:30:18.136Z,97252.28
2018-05-03T01:32:45.653Z,97250.00
2018-05-03T01:35:25.027Z,97254.52
2018-05-03T01:37:52.471Z,97253.24
2018-05-03T01:40:19.928Z,97258.77
2018-05-03T01:42:47.349Z,97252.45
2018-05-03T01:45:14.763Z,97261.36
2018-05-03T01:47:42.260Z,97265.81
2018-05-03T01:50:09.687Z,97265.73
2018-05-03T01:52:37.210Z,97267.09
2018-05-03T01:55:04.661Z,97268.69
2018-05-03T01:57:32.327Z,97267.81
2018-05-03T01:59:59.763Z,97270.19
2018-05-03T02:02:27.232Z,97270.99
2018-05-03T02:04:54.657Z,97272.83
2018-05-03T02:07:22.121Z,97267.58
2018-05-03T02:09:49.572Z,97272.12
2018-05-03T02:12:17.013Z,97266.80
2018-05-03T02:14:44.486Z,97275.78
2018-05-03T02:17:12.014Z,97280.47
2018-05-03T02:19:39.641Z,97284.26
2018-05-03T02:22:07.106Z,97278.89
2018-05-03T02:24:34.559Z,97277.93
2018-05-03T02:27:02.009Z,97276.02
2018-05-03T02:29:29.461Z,97270.97
2018-05-03T02:31:56.889Z,97267.98
2018-05-03T02:34:24.350Z,97260.34
2018-05-03T02:36:51.774Z,97266.87
2018-05-03T02:39:19.240Z,97269.70
2018-05-03T02:41:46.663Z,97265.41
2018-05-03T02:44:14.109Z,97262.78
2018-05-03T02:46:41.551Z,97268.98
2018-05-03T02:49:09.004Z,97266.13
2018-05-03T02:51:36.477Z,97264.73
2018-05-03T02:54:04.037Z,97272.17
2018-05-03T02:56:31.575Z,97262.16
2018-05-03T02:59:10.849Z,97261.91
2018-05-03T03:01:54.861Z,97257.05
2018-05-03T03:04:39.575Z,97257.92
2018-05-03T03:07:20.296Z,97260.40
2018-05-03T03:13:35.592Z,97264.94
2018-05-03T03:19:30.235Z,97266.09
2018-05-03T03:22:15.155Z,97260.20
2018-05-03T03:24:54.321Z,97260.05
2018-05-03T03:27:43.010Z,97268.75
2018-05-03T03:33:34.030Z,97278.45
2018-05-03T03:36:13.231Z,97282.78
2018-05-03T03:38:52.524Z,97281.88
2018-05-03T03:41:31.614Z,97278.22
2018-05-03T03:44:10.860Z,97282.35
2018-05-03T03:46:38.300Z,97276.15
2018-05-03T03:49:05.738Z,97277.82
2018-05-03T03:51:33.201Z,97278.77
2018-05-03T03:54:01.512Z,97279.56
2018-05-03T03:56:28.941Z,97281.00
2018-05-03T03:58:56.426Z,97284.53
2018-05-03T04:01:23.873Z,97289.38
2018-05-03T04:03:51.308Z,97296.89
2018-05-03T04:06:18.757Z,97294.42
2018-05-03T04:08:46.218Z,97297.13
2018-05-03T04:11:13.675Z,97303.72
2018-05-03T04:13:42.680Z,97312.47
2018-05-03T04:16:10.152Z,97311.25
2018-05-03T04:18:49.336Z,97318.33
2018-05-03T04:21:28.481Z,97311.25
2018-05-03T04:24:08.507Z,97311.88
2018-05-03T04:26:35.995Z,97305.84
2018-05-03T04:29:03.425Z,97313.88
2018-05-03T04:31:30.887Z,97312.76
2018-05-03T04:33:58.344Z,97314.98
2018-05-03T04:36:25.957Z,97309.27
2018-05-03T04:38:53.393Z,97321.23
2018-05-03T04:41:20.915Z,97325.69
2018-05-03T04:43:48.367Z,97327.23
2018-05-03T04:46:15.807Z,97327.28
2018-05-03T04:48:43.342Z,97331.26
2018-05-03T04:51:10.784Z,97333.87
2018-05-03T04:53:38.261Z,97336.50
2018-05-03T04:56:05.698Z,97330.46
2018-05-03T04:58:33.333Z,97338.73
2018-05-03T05:01:00.770Z,97338.38
2018-05-03T05:03:28.222Z,97341.84
2018-05-03T05:05:56.193Z,97340.09
2018-05-03T05:08:23.742Z,97337.00
2018-05-03T05:10:51.341Z,97343.45
2018-05-03T05:13:18.779Z,97350.81
2018-05-03T05:15:46.251Z,97346.92
2018-05-03T05:18:13.688Z,97349.55
2018-05-03T05:20:41.126Z,97350.79
2018-05-03T05:23:08.620Z,97349.75
2018-05-03T05:25:36.094Z,97345.22
2018-05-03T05:28:03.543Z,97351.78
2018-05-03T05:30:31.040Z,97361.05
2018-05-03T05:32:58.480Z,97362.77
2018-05-03T05:35:26.029Z,97369.20
2018-05-03T05:37:53.502Z,97368.97
2018-05-03T05:40:20.982Z,97367.89
2018-05-03T05:42:48.421Z,97373.34
2018-05-03T05:45:15.860Z,97373.98
2018-05-03T05:47:43.339Z,97375.56
2018-05-03T05:50:10.773Z,97383.44
2018-05-03T05:52:38.398Z,97386.47
2018-05-03T05:55:05.827Z,97384.23
2018-05-03T05:57:33.324Z,97391.16
2018-05-03T06:00:00.767Z,97390.20
2018-05-03T06:02:28.215Z,97396.41
2018-05-03T06:04:55.659Z,97397.41
2018-05-03T06:07:23.115Z,97394.30
2018-05-03T06:09:50.583Z,97396.38
2018-05-03T06:12:18.082Z,97398.91
2018-05-03T06:14:45.706Z,97401.63
2018-05-03T06:17:13.181Z,97402.28
2018-05-03T06:19:40.660Z,97410.31
2018-05-03T06:22:08.100Z,97410.39
2018-05-03T06:24:35.674Z,97411.72
2018-05-03T06:27:03.072Z,97417.21
2018-05-03T06:29:30.510Z,97415.70
2018-05-03T06:31:58.020Z,97416.73
2018-05-03T06:34:25.409Z,97420.42
2018-05-03T06:36:52.863Z,97423.03
2018-05-03T06:39:20.310Z,97430.34
2018-05-03T06:41:48.127Z,97427.05
2018-05-03T06:44:15.611Z,97435.25
2018-05-03T06:46:43.045Z,97431.91
2018-05-03T06:49:10.501Z,97425.70
2018-05-03T06:51:37.954Z,97425.30
2018-05-03T06:54:05.428Z,97433.20
2018-05-03T06:56:32.942Z,97433.94
2018-05-03T06:59:00.599Z,97437.42
2018-05-03T07:01:28.024Z,97437.74
2018-05-03T07:03:55.519Z,97443.77
2018-05-03T07:06:23.079Z,97440.47
2018-05-03T07:08:51.371Z,97445.16
2018-05-03T07:11:18.800Z,97449.54
2018-05-03T07:13:46.270Z,97448.98
2018-05-03T07:16:13.794Z,97444.64
2018-05-03T07:18:41.189Z,97445.83
2018-05-03T07:21:08.667Z,97448.22
2018-05-03T07:23:36.181Z,97455.62
2018-05-03T07:26:03.629Z,97456.25
2018-05-03T07:28:31.190Z,97453.13
2018-05-03T07:30:58.691Z,97453.11
2018-05-03T07:33:26.173Z,97458.76
2018-05-03T07:35:53.637Z,97452.83
2018-05-03T07:38:21.075Z,97462.02
2018-05-03T07:40:48.550Z,97461.76
2018-05-03T07:43:15.957Z,97454.38
2018-05-03T07:45:43.413Z,97459.43
2018-05-03T07:48:10.843Z,97465.57
2018-05-03T07:50:38.319Z,97468.60
2018-05-03T07:53:05.751Z,97466.30
2018-05-03T07:55:33.208Z,97466.98
2018-05-03T07:58:00.652Z,97474.59
2018-05-03T08:00:28.179Z,97471.67
2018-05-03T08:02:55.629Z,97469.48
2018-05-03T08:05:23.095Z,97457.00
2018-05-03T08:07:50.542Z,97466.55
2018-05-03T08:10:17.996Z,97461.91
2018-05-03T08:12:45.476Z,97474.02
2018-05-03T08:15:12.894Z,97479.28
2018-05-03T08:17:40.347Z,97482.09
2018-05-03T08:20:07.808Z,97485.01
2018-05-03T08:22:35.237Z,97484.94
2018-05-03T08:25:02.711Z,97485.33
2018-05-03T08:27:30.153Z,97482.30
2018-05-03T08:29:57.636Z,97481.98
2018-05-03T08:32:25.067Z,97484.38
2018-05-03T08:34:52.520Z,97485.69
2018-05-03T08:37:19.959Z,97492.94
2018-05-03T08:39:47.404Z,97489.33
2018-05-03T08:42:14.894Z,97496.03
2018-05-03T08:44:42.401Z,97501.30
2018-05-03T08:47:09.817Z,97507.75
2018-05-03T08:49:37.328Z,97508.31
2018-05-03T08:52:04.799Z,97510.13
2018-05-03T08:54:32.262Z,97514.86
2018-05-03T08:56:59.878Z,97517.33
2018-05-03T08:59:27.318Z,97518.66
2018-05-03T09:01:54.853Z,97523.90
2018-05-03T09:04:22.247Z,97519.53
2018-05-03T09:06:49.689Z,97519.55
2018-05-03T09:09:17.141Z,97516.91
2018-05-03T09:11:44.617Z,97520.16
2018-05-03T09:14:12.074Z,97521.23
2018-05-03T09:16:39.576Z,97522.03
2018-05-03T09:19:07.039Z,97518.92
2018-05-03T09:21:34.528Z,97517.51
2018-05-03T09:24:02.024Z,97519.25
2018-05-03T09:26:29.472Z,97515.88
2018-05-03T09:28:56.938Z,97513.16
2018-05-03T09:31:24.389Z,97509.34
2018-05-03T09:33:51.940Z,97515.29
2018-05-03T09:36:19.372Z,97514.09
2018-05-03T09:38:46.828Z,97517.87
2018-05-03T09:41:14.247Z,97514.65
2018-05-03T09:43:41.699Z,97512.48
2018-05-03T09:46:09.126Z,97521.20
2018-05-03T09:48:36.598Z,97526.81
2018-05-03T09:51:04.090Z,97519.34
2018-05-03T09:53:31.508Z,97526.85
2018-05-03T09:55:58.952Z,97525.63
2018-05-03T09:58:26.419Z,97521.06
2018-05-03T10:00:53.888Z,97529.08
2018-05-03T10:03:21.365Z,97533.20
2018-05-03T10:05:48.811Z,97529.77
2018-05-03T10:08:16.279Z,97534.41
2018-05-03T10:10:43.747Z,97530.33
2018-05-03T10:13:11.262Z,97537.33
2018-05-03T10:15:38.704Z,97536.87
2018-05-03T10:18:06.161Z,97540.13
2018-05-03T10:20:33.662Z,97531.36
2018-05-03T10:23:01.148Z,97533.18
2018-05-03T10:25:28.582Z,97532.52
2018-05-03T10:27:56.024Z,97530.42
2018-05-03T10:30:23.467Z,97536.61
2018-05-03T10:32:50.975Z,97530.86
2018-05-03T10:35:18.503Z,97535.20
2018-05-03T10:37:45.959Z,97535.33
2018-05-03T10:40:13.426Z,97535.03
2018-05-03T10:42:40.857Z,97531.82
2018-05-03T10:45:08.459Z,97537.20
2018-05-03T10:47:35.934Z,97543.84
2018-05-03T10:50:03.386Z,97539.54
2018-05-03T10:52:30.822Z,97536.75
2018-05-03T10:54:58.282Z,97537.20
2018-05-03T10:57:25.806Z,97541.46
2018-05-03T10:59:53.193Z,97538.88
2018-05-03T11:02:20.641Z,97543.08
2018-05-03T11:04:48.100Z,97533.67
2018-05-03T11:07:15.550Z,97542.55
2018-05-03T11:09:43.008Z,97536.56
2018-05-03T11:12:10.540Z,97540.36
2018-05-03T11:14:37.981Z,97537.19
2018-05-03T11:17:05.492Z,97537.48
2018-05-03T11:19:33.079Z,97542.88
2018-05-03T11:22:00.553Z,97533.91
2018-05-03T11:24:27.991Z,97540.10
2018-05-03T11:26:55.487Z,97541.59
2018-05-03T11:29:22.975Z,97544.41
2018-05-03T11:31:50.533Z,97548.64
2018-05-03T11:34:17.994Z,97556.53
2018-05-03T11:36:46.120Z,97552.05
2018-05-03T11:39:13.542Z,97550.56
2018-05-03T11:41:41.041Z,97548.44
2018-05-03T11:44:08.531Z,97538.09
2018-05-03T11:46:36.142Z,97540.36
2018-05-03T11:49:03.594Z,97531.78
2018-05-03T11:51:31.057Z,97533.64
2018-05-03T11:53:58.515Z,97530.52
2018-05-03T11:56:25.964Z,97526.78
2018-05-03T11:58:54.127Z,97526.87
2018-05-03T12:01:21.586Z,97525.23
2018-05-03T12:03:49.099Z,97517.03
2018-05-03T12:06:16.572Z,97522.83
2018-05-03T12:08:44.015Z,97523.69
2018-05-03T12:11:11.480Z,97536.69
2018-05-03T12:13:39.121Z,97529.98
2018-05-03T12:16:06.591Z,97530.19
2018-05-03T12:18:34.117Z,97522.67
2018-05-03T12:21:01.546Z,97521.05
2018-05-03T12:23:29.028Z,97520.86
2018-05-03T12:25:56.509Z,97520.85
2018-05-03T12:28:23.997Z,97521.16
2018-05-03T12:30:51.434Z,97520.59
2018-05-03T12:33:18.895Z,97512.02
2018-05-03T12:35:46.343Z,97510.03
2018-05-03T12:38:13.769Z,97511.77
2018-05-03T12:40:41.248Z,97503.70
2018-05-03T12:43:08.685Z,97509.31
2018-05-03T12:45:36.149Z,97507.90
2018-05-03T12:48:03.665Z,97501.36
2018-05-03T12:50:31.126Z,97504.16
2018-05-03T12:52:58.584Z,97504.88
2018-05-03T12:55:26.053Z,97503.75
2018-05-03T12:57:53.507Z,97497.78
2018-05-03T13:00:20.980Z,97499.31
2018-05-03T13:02:48.459Z,97497.97
2018-05-03T13:05:15.937Z,97497.69
2018-05-03T13:07:43.413Z,97489.89
2018-05-03T13:10:10.865Z,97494.80
2018-05-03T13:12:38.352Z,97487.27
2018-05-03T13:15:05.775Z,97490.73
2018-05-03T13:17:33.254Z,97494.17
2018-05-03T13:20:00.690Z,97490.06
2018-05-03T13:22:28.138Z,97499.25
2018-05-03T13:24:55.580Z,97494.20
2018-05-03T13:27:23.043Z,97495.70
2018-05-03T13:29:50.478Z,97508.99
2018-05-03T13:32:18.089Z,97508.78
2018-05-03T13:34:45.521Z,97502.97
2018-05-03T13:37:12.974Z,97499.20
2018-05-03T13:39:40.460Z,97490.91
2018-05-03T13:42:07.918Z,97492.23
2018-05-03T13:44:35.369Z,97497.63
2018-05-03T13:47:03.452Z,97489.69
2018-05-03T13:49:30.912Z,97489.84
2018-05-03T13:51:58.462Z,97485.76
2018-05-03T13:54:26.055Z,97485.30
2018-05-03T13:56:53.576Z,97479.68
2018-05-03T13:59:21.032Z,97477.57
2018-05-03T14:01:48.499Z,97472.11
2018-05-03T14:04:15.969Z,97459.09
2018-05-03T14:06:43.403Z,97465.35
2018-05-03T14:09:10.876Z,97463.34
2018-05-03T14:11:38.328Z,97467.26
2018-05-03T14:14:05.787Z,97470.11
2018-05-03T14:16:33.221Z,97470.73
2018-05-03T14:19:00.748Z,97467.36
2018-05-03T14:21:28.436Z,97469.05
2018-05-03T14:23:55.893Z,97467.70
2018-05-03T14:26:23.385Z,97470.05
2018-05-03T14:28:50.848Z,97465.97
2018-05-03T14:31:18.294Z,97472.14
2018-05-03T14:33:45.898Z,97464.65
2018-05-03T14:36:13.349Z,97473.55
2018-05-03T14:38:40.880Z,97466.72
2018-05-03T14:41:08.354Z,97474.62
2018-05-03T14:43:35.784Z,97473.34
2018-05-03T14:46:03.270Z,97474.66
2018-05-03T14:48:30.726Z,97467.87
2018-05-03T14:50:58.191Z,97471.41
2018-05-03T14:53:25.648Z,97472.95
2018-05-03T14:55:53.217Z,97478.55
2018-05-03T14:58:20.692Z,97481.95
2018-05-03T15:00:48.104Z,97478.44
2018-05-03T15:03:15.574Z,97476.16
2018-05-03T15:05:43.011Z,97484.09
2018-05-03T15:08:10.467Z,97476.59
2018-05-03T15:10:37.941Z,97481.08
2018-05-03T15:13:05.367Z,97486.48
2018-05-03T15:15:32.800Z,97486.17
2018-05-03T15:18:00.296Z,97486.09
2018-05-03T15:20:27.722Z,97484.48
2018-05-03T15:22:55.179Z,97486.74
2018-05-03T15:25:22.644Z,97489.30
2018-05-03T15:27:50.086Z,97485.37
2018-05-03T15:30:17.560Z,97484.68
2018-05-03T15:32:44.996Z,97482.73
2018-05-03T15:35:12.475Z,97485.34
2018-05-03T15:37:39.918Z,97477.11
2018-05-03T15:40:07.373Z,97481.65
2018-05-03T15:42:34.805Z,97481.53
2018-05-03T15:45:02.312Z,97475.73
2018-05-03T15:47:29.823Z,97473.30
2018-05-03T15:49:57.362Z,97474.89
2018-05-03T15:52:24.732Z,97478.69
2018-05-03T15:54:52.196Z,97474.95
2018-05-03T15:57:19.608Z,97470.50
2018-05-03T15:59:47.088Z,97469.59
2018-05-03T16:02:14.518Z,97470.76
2018-05-03T16:04:42.101Z,97470.80
2018-05-03T16:07:09.645Z,97468.59
2018-05-03T16:09:37.068Z,97464.73
2018-05-03T16:12:04.623Z,97464.69
2018-05-03T16:14:32.081Z,97469.59
2018-05-03T16:16:59.534Z,97464.47
2018-05-03T16:19:26.984Z,97463.13
2018-05-03T16:21:54.456Z,97458.86
2018-05-03T16:24:21.918Z,97457.39
2018-05-03T16:26:49.375Z,97461.94
2018-05-03T16:29:16.842Z,97461.14
2018-05-03T16:31:44.306Z,97469.33
2018-05-03T16:34:11.807Z,97472.70
2018-05-03T16:36:39.901Z,97478.16
2018-05-03T16:39:07.370Z,97474.61
2018-05-03T16:41:34.903Z,97480.06
2018-05-03T16:44:02.352Z,97479.89
2018-05-03T16:46:29.796Z,97483.55
2018-05-03T16:48:57.258Z,97480.19
2018-05-03T16:51:24.695Z,97482.44
2018-05-03T16:53:56.004Z,97482.53
2018-05-03T16:56:27.552Z,97489.62
2018-05-03T16:58:55.011Z,97483.84
2018-05-03T17:01:22.550Z,97487.34
2018-05-03T17:03:50.062Z,97485.70
2018-05-03T17:06:17.617Z,97482.80
2018-05-03T17:08:45.984Z,97478.78
2018-05-03T17:11:13.630Z,97481.59
2018-05-03T17:13:41.213Z,97480.08
2018-05-03T17:16:08.905Z,97484.63
2018-05-03T17:18:36.560Z,97483.50
2018-05-03T17:21:03.998Z,97489.05
2018-05-03T17:23:31.468Z,97495.34
2018-05-03T17:25:59.539Z,97493.48
2018-05-03T17:28:26.980Z,97495.98
2018-05-03T17:30:54.658Z,97503.13
2018-05-03T17:33:22.106Z,97504.77
2018-05-03T17:35:49.753Z,97508.29
2018-05-03T17:38:17.831Z,97505.62
2018-05-03T17:40:45.575Z,97505.84
2018-05-03T17:43:13.060Z,97513.52
2018-05-03T17:45:40.554Z,97516.66
2018-05-03T17:48:08.007Z,97514.72
2018-05-03T17:50:35.469Z,97523.53
2018-05-03T17:53:03.375Z,97520.47
2018-05-03T17:55:31.566Z,97523.83
2018-05-03T17:57:59.037Z,97520.05
2018-05-03T18:00:26.525Z,97531.23
2018-05-03T18:02:54.031Z,97533.38
2018-05-03T18:05:21.447Z,97532.92
2018-05-03T18:07:48.897Z,97543.19
2018-05-03T18:10:16.357Z,97546.64
2018-05-03T18:15:17.866Z,97551.12
2018-05-03T18:17:45.358Z,97553.36
2018-05-03T18:20:12.779Z,97550.89
2018-05-03T18:22:40.267Z,97556.02
2018-05-03T18:25:07.724Z,97555.61
2018-05-03T18:27:35.207Z,97558.52
2018-05-03T18:30:02.652Z,97560.27
2018-05-03T18:32:30.104Z,97565.09
2018-05-03T18:34:57.577Z,97571.16
2018-05-03T18:37:25.024Z,97573.25
2018-05-03T18:39:52.527Z,97573.03
2018-05-03T18:42:19.983Z,97576.77
2018-05-03T18:44:47.476Z,97580.10
2018-05-03T18:47:15.005Z,97583.83
2018-05-03T18:49:42.637Z,97587.34
2018-05-03T18:52:10.162Z,97592.92
2018-05-03T18:54:37.751Z,97591.81
2018-05-03T18:57:05.584Z,97595.83
2018-05-03T18:59:33.097Z,97596.03
2018-05-03T19:02:00.600Z,97603.70
2018-05-03T19:04:28.043Z,97609.11
2018-05-03T19:06:55.739Z,97611.41
2018-05-03T19:09:23.542Z,97609.98
2018-05-03T19:11:51.076Z,97617.13
2018-05-03T19:14:18.466Z,97611.98
2018-05-03T19:16:45.955Z,97615.75
2018-05-03T19:19:13.392Z,97622.84
2018-05-03T19:21:40.926Z,97628.09
2018-05-03T19:24:08.372Z,97620.42
2018-05-03T19:26:35.884Z,97626.39
2018-05-03T19:29:04.033Z,97630.36
2018-05-03T19:31:31.489Z,97631.14
2018-05-03T19:33:58.960Z,97636.16
2018-05-03T19:36:26.445Z,97636.34
2018-05-03T19:38:53.973Z,97639.16
2018-05-03T19:41:21.408Z,97641.64
2018-05-03T19:43:48.860Z,97651.53
2018-05-03T19:46:16.337Z,97654.77
2018-05-03T19:48:43.821Z,97656.32
2018-05-03T19:51:11.255Z,97657.02
2018-05-03T19:53:38.754Z,97657.05
2018-05-03T19:56:06.193Z,97659.17
2018-05-03T19:58:33.680Z,97664.38
2018-05-03T20:01:01.175Z,97661.20
2018-05-03T20:03:28.631Z,97663.81
2018-05-03T20:05:56.092Z,97658.31
2018-05-03T20:08:23.588Z,97660.08
2018-05-03T20:10:51.169Z,97660.75
2018-05-03T20:13:18.830Z,97669.09
2018-05-03T20:15:46.308Z,97670.85
2018-05-03T20:18:13.753Z,97659.13
2018-05-03T20:20:41.839Z,97652.75
2018-05-03T20:23:09.307Z,97658.56
2018-05-03T20:25:36.787Z,97660.93
2018-05-03T20:28:04.245Z,97652.10
2018-05-03T20:30:31.695Z,97657.53
2018-05-03T20:32:59.180Z,97657.11
2018-05-03T20:35:26.597Z,97653.34
2018-05-03T20:37:54.042Z,97651.95
2018-05-03T20:40:21.528Z,97653.34
2018-05-03T20:42:48.995Z,97655.53
2018-05-03T20:45:16.439Z,97650.29
2018-05-03T20:47:43.915Z,97644.65
2018-05-03T20:50:11.375Z,97650.98
2018-05-03T20:52:38.793Z,97638.25
2018-05-03T20:55:06.263Z,97645.84
2018-05-03T20:57:33.856Z,97650.99
2018-05-03T21:00:01.274Z,97643.88
2018-05-03T21:02:28.725Z,97645.77
2018-05-03T21:04:56.391Z,97644.51
2018-05-03T21:07:23.845Z,97634.09
2018-05-03T21:09:51.305Z,97639.17
2018-05-03T21:12:19.611Z,97649.27
2018-05-03T21:14:47.104Z,97659.98
2018-05-03T21:17:14.535Z,97662.38
2018-05-03T21:19:42.077Z,97653.61
2018-05-03T21:22:09.528Z,97664.48
2018-05-03T21:24:36.968Z,97655.23
2018-05-03T21:27:04.431Z,97663.34
2018-05-03T21:29:31.876Z,97658.27
2018-05-03T21:31:59.325Z,97659.45
2018-05-03T21:34:26.774Z,97659.70
2018-05-03T21:36:54.260Z,97666.09
2018-05-03T21:39:21.693Z,97671.67
2018-05-03T21:41:49.247Z,97667.69
2018-05-03T21:44:16.647Z,97668.78
2018-05-03T21:46:44.101Z,97670.80
2018-05-03T21:49:11.553Z,97670.16
2018-05-03T21:51:39.035Z,97674.94
2018-05-03T21:54:07.000Z,97675.04
2018-05-03T21:56:34.569Z,97674.05
2018-05-03T21:59:02.034Z,97675.80
2018-05-03T22:01:29.475Z,97672.23
2018-05-03T22:03:57.033Z,97682.70
2018-05-03T22:06:24.382Z,97681.56
2018-05-03T22:08:51.866Z,97683.49
2018-05-03T22:11:19.313Z,97679.03
2018-05-03T22:13:46.826Z,97682.35
2018-05-03T22:16:14.269Z,97687.31
2018-05-03T22:18:41.817Z,97686.45
2018-05-03T22:21:09.253Z,97692.97
2018-05-03T22:23:36.775Z,97693.70
2018-05-03T22:26:04.291Z,97691.61
2018-05-03T22:28:31.765Z,97703.66
2018-05-03T22:30:59.272Z,97699.42
2018-05-03T22:33:26.707Z,97706.49
2018-05-03T22:35:54.173Z,97714.47
2018-05-03T22:38:22.469Z,97718.60
2018-05-03T22:40:50.118Z,97722.20
2018-05-03T22:43:17.545Z,97720.77
2018-05-03T22:45:45.044Z,97721.55
2018-05-03T22:48:12.510Z,97721.88
2018-05-03T22:50:40.607Z,97726.09
2018-05-03T22:53:08.107Z,97733.06
2018-05-03T22:55:35.631Z,97733.38
2018-05-03T22:58:03.084Z,97731.22
2018-05-03T23:00:30.612Z,97731.53
2018-05-03T23:02:58.069Z,97724.51
2018-05-03T23:05:25.579Z,97725.36
2018-05-03T23:07:53.041Z,97723.56
2018-05-03T23:10:20.778Z,97720.78
2018-05-03T23:12:48.238Z,97718.44
2018-05-03T23:15:15.678Z,97713.96
2018-05-03T23:17:43.125Z,97707.10
2018-05-03T23:20:10.590Z,97709.64
2018-05-03T23:22:38.108Z,97701.66
2018-05-03T23:25:05.545Z,97705.67
2018-05-03T23:27:33.021Z,97707.34
2018-05-03T23:30:00.559Z,97696.59
2018-05-03T23:32:28.091Z,97691.97
2018-05-03T23:34:55.565Z,97696.89
2018-05-03T23:37:22.997Z,97690.58
2018-05-03T23:39:50.524Z,97691.45
2018-05-03T23:42:17.980Z,97693.23
2018-05-03T23:44:45.469Z,97700.95
2018-05-03T23:47:13.000Z,97701.22
2018-05-03T23:49:40.453Z,97690.42
2018-05-03T23:52:07.901Z,97694.25
2018-05-03T23:54:35.375Z,97690.91
2018-05-03T23:57:02.877Z,97692.34
2018-05-03T23:59:30.357Z,97688.58
